createdAt,value
2023-04-18T00:02:29.053Z,100100.59
2023-04-18T00:07:33.637Z,100200.84
2023-04-18T00:12:36.408Z,100059.47
2023-04-18T00:17:41.025Z,100072.63
2023-04-18T00:22:45.364Z,100074.78
2023-04-18T00:27:46.950Z,100204.06
2023-04-18T00:32:48.563Z,100168.81
2023-04-18T00:37:50.205Z,100189.22
2023-04-18T00:42:51.826Z,100209.50
2023-04-18T00:47:56.391Z,100140.81
2023-04-18T00:53:00.544Z,100088.75
2023-04-18T00:58:02.410Z,100193.81
2023-04-18T01:03:08.438Z,100218.44
2023-04-18T01:08:10.686Z,100065.97
2023-04-18T01:13:16.571Z,100070.81
2023-04-18T01:18:20.902Z,100170.56
2023-04-18T01:23:22.526Z,100115.88
2023-04-18T01:28:24.518Z,100183.78
2023-04-18T01:33:26.186Z,100144.91
2023-04-18T01:38:30.994Z,100067.75
2023-04-18T01:43:32.726Z,100111.53
2023-04-18T01:48:36.830Z,100167.50
2023-04-18T01:53:38.402Z,100220.78
2023-04-18T01:58:41.644Z,100068.66
2023-04-18T02:03:43.610Z,100114.72
2023-04-18T02:08:45.426Z,100190.03
2023-04-18T02:13:47.237Z,100172.28
2023-04-18T02:18:49.730Z,100153.69
2023-04-18T02:23:51.674Z,100070.72
2023-04-18T02:28:53.374Z,100202.19
2023-04-18T02:33:55.093Z,100113.38
2023-04-18T02:38:57.118Z,100204.03
2023-04-18T02:44:01.877Z,100203.97
2023-04-18T02:49:03.659Z,100171.78
2023-04-18T02:54:05.480Z,100147.25
2023-04-18T02:59:09.550Z,100177.94
2023-04-18T03:04:11.539Z,100178.31
2023-04-18T03:09:16.336Z,100191.06
2023-04-18T03:14:20.574Z,100176.25
2023-04-18T03:19:22.176Z,100182.50
2023-04-18T03:24:23.755Z,100216.84
2023-04-18T03:29:26.368Z,100134.13
2023-04-18T03:34:30.504Z,100206.03
2023-04-18T03:39:32.104Z,100227.53
2023-04-18T03:44:34.083Z,100191.47
2023-04-18T03:49:35.683Z,100210.09
2023-04-18T03:54:39.646Z,100183.19
2023-04-18T03:59:41.829Z,100221.25
2023-04-18T04:04:47.053Z,100217.59
2023-04-18T04:09:48.720Z,100211.50
2023-04-18T04:14:51.663Z,100201.22
2023-04-18T04:19:53.393Z,100235.19
2023-04-18T04:24:58.910Z,100128.78
2023-04-18T04:30:00.919Z,100206.03
2023-04-18T04:35:05.218Z,100236.66
2023-04-18T04:40:10.550Z,100148.72
2023-04-18T04:45:12.511Z,100176.31
2023-04-18T04:50:15.777Z,100213.28
2023-04-18T04:55:18.930Z,100189.63
2023-04-18T05:00:21.570Z,100207.44
2023-04-18T05:05:33.016Z,100262.16
2023-04-18T05:10:37.117Z,100172.13
2023-04-18T05:15:39.889Z,100206.00
2023-04-18T05:20:41.520Z,100099.34
2023-04-18T05:25:43.222Z,100151.59
2023-04-18T05:30:45.179Z,100072.66
2023-04-18T05:35:49.131Z,100186.50
2023-04-18T05:40:55.586Z,100119.78
2023-04-18T05:45:59.718Z,100211.00
2023-04-18T05:51:04.677Z,100081.91
2023-04-18T05:56:06.869Z,100215.88
2023-04-18T06:01:08.927Z,100219.44
2023-04-18T06:06:14.616Z,100196.34
2023-04-18T06:11:16.405Z,100159.25
2023-04-18T06:16:18.349Z,100167.22
2023-04-18T06:21:21.319Z,100180.00
2023-04-18T06:26:23.029Z,100125.06
2023-04-18T06:31:26.732Z,100055.94
2023-04-18T06:36:32.701Z,100203.84
2023-04-18T06:41:35.768Z,100147.00
2023-04-18T06:46:37.486Z,100247.03
2023-04-18T06:51:39.135Z,100242.44
2023-04-18T06:56:41.242Z,100273.00
2023-04-18T07:01:44.209Z,100286.53
2023-04-18T07:06:46.826Z,100288.66
2023-04-18T07:11:52.555Z,100268.34
2023-04-18T07:16:57.777Z,100247.22
2023-04-18T07:22:01.382Z,100300.03
2023-04-18T07:27:03.438Z,100224.25
2023-04-18T07:32:07.509Z,100280.41
2023-04-18T07:37:10.116Z,100252.53
2023-04-18T07:42:11.795Z,100246.75
2023-04-18T07:47:15.109Z,100212.53
2023-04-18T07:52:16.810Z,100258.09
2023-04-18T07:57:21.923Z,100186.69
2023-04-18T08:02:23.731Z,100282.53
2023-04-18T08:07:40.875Z,100237.84
2023-04-18T08:12:42.565Z,100275.88
2023-04-18T08:17:47.449Z,100331.19
2023-04-18T08:23:05.146Z,100204.53
2023-04-18T08:28:11.986Z,100188.34
2023-04-18T08:33:13.828Z,100245.09
2023-04-18T08:38:20.510Z,100322.59
2023-04-18T08:43:29.669Z,100326.84
2023-04-18T08:48:31.537Z,100275.88
2023-04-18T08:53:34.059Z,100329.03
2023-04-18T08:58:35.723Z,100345.50
2023-04-18T09:03:44.514Z,100293.22
2023-04-18T09:08:59.053Z,100329.63
2023-04-18T09:14:02.552Z,100315.88
2023-04-18T09:19:18.595Z,100335.44
2023-04-18T09:24:37.981Z,100311.06
2023-04-18T09:29:47.167Z,100332.34
2023-04-18T09:34:58.455Z,100264.03
2023-04-18T09:40:00.249Z,100412.19
2023-04-18T09:45:07.131Z,100369.38
2023-04-18T09:50:11.756Z,100373.41
2023-04-18T09:55:19.009Z,100343.97
2023-04-18T10:00:34.616Z,100332.78
2023-04-18T10:05:50.709Z,100281.72
2023-04-18T10:10:53.666Z,100315.75
2023-04-18T10:15:58.671Z,100372.19
2023-04-18T10:21:11.478Z,100260.75
2023-04-18T10:26:13.184Z,100262.44
2023-04-18T10:31:16.644Z,100345.06
2023-04-18T10:36:23.868Z,100260.44
2023-04-18T10:41:27.622Z,100361.03
2023-04-18T10:46:32.298Z,100314.38
2023-04-18T10:51:36.958Z,100401.22
2023-04-18T10:56:39.524Z,100301.22
2023-04-18T11:06:36.011Z,100238.94
2023-04-18T11:11:37.601Z,100307.81
2023-04-18T11:16:42.953Z,100308.69
2023-04-18T11:21:49.414Z,100289.31
2023-04-18T11:26:58.398Z,100241.72
2023-04-18T11:32:08.160Z,100250.22
2023-04-18T11:37:12.330Z,100305.28
2023-04-18T11:42:14.088Z,100199.81
2023-04-18T11:47:25.888Z,100253.59
2023-04-18T11:52:29.172Z,100304.19
2023-04-18T11:57:53.732Z,100265.09
2023-04-18T12:02:59.384Z,100283.19
2023-04-18T12:08:20.347Z,100272.13
2023-04-18T12:13:26.866Z,100303.06
2023-04-18T12:18:36.009Z,100269.38
2023-04-18T12:23:39.792Z,100254.38
2023-04-18T12:28:51.315Z,100300.38
2023-04-18T12:33:52.913Z,100277.31
2023-04-18T12:38:58.989Z,100242.28
2023-04-18T12:44:00.689Z,100305.91
2023-04-18T12:49:04.692Z,100260.13
2023-04-18T12:54:06.512Z,100273.13
2023-04-18T12:59:08.164Z,100203.44
2023-04-18T13:04:13.028Z,100297.41
2023-04-18T13:09:26.927Z,100169.25
2023-04-18T13:14:33.535Z,100264.94
2023-04-18T13:19:35.324Z,100281.94
2023-04-18T13:24:37.205Z,100180.16
2023-04-18T13:29:42.335Z,100184.78
2023-04-18T13:34:46.950Z,100203.44
2023-04-18T13:39:58.776Z,100300.94
2023-04-18T13:45:00.442Z,100296.25
2023-04-18T13:50:06.437Z,100192.56
2023-04-18T13:55:10.638Z,100238.63
2023-04-18T14:00:16.503Z,100272.72
2023-04-18T14:05:18.180Z,100226.72
2023-04-18T14:10:22.784Z,100259.84
2023-04-18T14:15:26.760Z,100243.34
2023-04-18T14:20:34.787Z,100252.72
2023-04-18T14:25:39.471Z,100214.75
2023-04-18T14:30:44.310Z,100217.06
2023-04-18T14:35:46.014Z,100247.81
2023-04-18T14:40:49.160Z,100220.38
2023-04-18T14:45:50.909Z,100271.16
2023-04-18T14:51:09.426Z,100202.38
2023-04-18T14:56:11.135Z,100182.19
2023-04-18T15:01:20.206Z,100233.28
2023-04-18T15:06:23.164Z,100221.38
2023-04-18T15:11:27.058Z,100194.97
2023-04-18T15:16:28.749Z,100172.41
2023-04-18T15:21:30.496Z,100235.91
2023-04-18T15:26:33.249Z,100194.72
2023-04-18T15:36:49.945Z,100186.13
2023-04-18T15:42:00.174Z,100242.84
2023-04-18T15:47:01.978Z,100244.78
2023-04-18T15:52:23.933Z,100237.56
2023-04-18T15:57:36.254Z,100221.25
2023-04-18T16:02:38.019Z,100185.94
2023-04-18T16:07:41.798Z,100193.16
2023-04-18T16:12:43.614Z,100175.75
2023-04-18T16:17:45.649Z,100154.31
2023-04-18T16:22:48.763Z,100214.44
2023-04-18T16:27:55.236Z,100172.59
2023-04-18T16:32:57.001Z,100109.25
2023-04-18T16:37:58.762Z,100197.63
2023-04-18T16:43:28.473Z,100116.03
2023-04-18T16:48:31.526Z,100154.03
2023-04-18T16:53:47.258Z,100094.66
2023-04-18T16:58:51.750Z,100237.69
2023-04-18T17:03:53.484Z,100173.28
2023-04-18T17:08:55.217Z,100172.28
2023-04-18T17:13:56.919Z,100156.03
2023-04-18T17:18:58.564Z,100212.94
2023-04-18T17:24:03.579Z,100208.09
2023-04-18T17:29:07.455Z,100169.81
2023-04-18T17:34:18.255Z,100129.56
2023-04-18T17:39:27.177Z,100123.47
2023-04-18T17:44:29.049Z,100146.28
2023-04-18T17:49:34.526Z,100168.19
2023-04-18T17:54:36.396Z,100139.34
2023-04-18T17:59:38.139Z,100165.94
2023-04-18T18:04:42.934Z,100098.00
2023-04-18T18:09:45.591Z,100127.84
2023-04-18T18:14:54.074Z,100106.41
2023-04-18T18:20:04.083Z,100134.22
2023-04-18T18:25:09.167Z,100162.50
2023-04-18T18:30:11.211Z,100085.84
2023-04-18T18:35:13.028Z,100084.16
2023-04-18T18:40:27.880Z,100101.69
2023-04-18T18:45:29.574Z,100144.78
2023-04-18T18:50:44.730Z,100138.88
2023-04-18T18:55:46.424Z,100148.69
2023-04-18T19:00:51.207Z,100143.69
2023-04-18T19:05:52.875Z,100145.78
2023-04-18T19:10:58.107Z,100182.69
2023-04-18T19:16:05.060Z,100196.47
2023-04-18T19:21:09.162Z,100169.09
2023-04-18T19:26:14.078Z,100225.75
2023-04-18T19:31:15.770Z,100049.44
2023-04-18T19:36:19.622Z,100167.38
2023-04-18T19:41:38.962Z,100128.81
2023-04-18T19:46:45.717Z,100170.28
2023-04-18T19:51:47.425Z,100164.69
2023-04-18T19:56:53.710Z,100197.72
2023-04-18T20:02:03.335Z,100143.13
2023-04-18T20:07:16.668Z,100151.19
2023-04-18T20:12:18.551Z,100146.41
2023-04-18T20:17:30.494Z,100129.28
2023-04-18T20:22:34.288Z,100149.09
2023-04-18T20:27:38.199Z,100170.47
2023-04-18T20:32:48.213Z,100169.75
2023-04-18T20:37:49.964Z,100199.81
2023-04-18T20:42:59.663Z,100199.31
2023-04-18T20:48:08.675Z,100227.03
2023-04-18T20:53:10.447Z,100128.63
2023-04-18T20:58:12.215Z,100178.94
2023-04-18T21:03:16.860Z,100243.88
2023-04-18T21:08:21.566Z,100197.97
2023-04-18T21:18:45.667Z,100254.34
2023-04-18T21:23:51.082Z,100226.28
2023-04-18T21:28:55.692Z,100166.03
2023-04-18T21:34:11.227Z,100265.22
2023-04-18T21:39:15.565Z,100258.22
2023-04-18T21:44:21.672Z,100185.06
2023-04-18T21:49:23.333Z,100226.78
2023-04-18T21:54:25.116Z,100191.63
2023-04-18T22:04:50.220Z,100247.31
2023-04-18T22:09:54.565Z,100191.63
2023-04-18T22:14:56.735Z,100211.66
2023-04-18T22:19:59.677Z,100149.53
2023-04-18T22:25:02.453Z,100236.97
2023-04-18T22:30:09.767Z,100116.19
2023-04-18T22:35:11.429Z,100221.03
2023-04-18T22:40:13.654Z,100200.97
2023-04-18T22:45:17.880Z,100234.66
2023-04-18T22:50:22.833Z,100145.19
2023-04-18T22:55:24.645Z,100254.72
2023-04-18T23:00:33.059Z,100220.19
2023-04-18T23:11:10.736Z,100284.19
2023-04-18T23:16:14.926Z,100283.19
2023-04-18T23:21:27.233Z,100257.59
2023-04-18T23:26:44.467Z,100255.09
2023-04-18T23:31:53.257Z,100211.84
2023-04-18T23:36:56.491Z,100281.25
2023-04-18T23:41:58.148Z,100226.53
2023-04-18T23:47:07.372Z,100262.75
2023-04-18T23:52:20.625Z,100174.06
2023-04-18T23:57:30.029Z,100277.44
